Time;durP1;ratioP1;P1;durP2;ratioP2;P2;SDS_P1;SDS_P2;PMS_P1;PMS_P2;Temp;Humidity;BMP_temperature;BMP_pressure;BME280_temperature;BME280_humidity;BME280_pressure;Samples;Min_cycle;Max_cycle;Signal;HPM_P1;HPM_P2
2023/04/22 00:00:58;;;;;;;7.88;5.82;;;;;;;;;;5070705;28;20222;-66
2023/04/22 00:03:24;;;;;;;8.07;5.80;;;;;;;;;;5069494;28;20218;-65
2023/04/22 00:05:50;;;;;;;8.30;6.22;;;;;;;;;;5078499;28;20202;-66
2023/04/22 00:08:15;;;;;;;7.88;5.63;;;;;;;;;;5087474;28;20728;-65
2023/04/22 00:10:40;;;;;;;8.35;5.50;;;;;;;;;;5087793;28;20210;-65
2023/04/22 00:13:05;;;;;;;7.65;5.30;;;;;;;;;;5090277;28;20296;-65
2023/04/22 00:15:31;;;;;;;7.50;5.22;;;;;;;;;;5088864;28;20700;-66
2023/04/22 00:17:56;;;;;;;9.35;5.55;;;;;;;;;;5071009;28;20214;-66
2023/04/22 00:20:22;;;;;;;8.30;5.50;;;;;;;;;;5069635;28;20687;-65
2023/04/22 00:22:47;;;;;;;6.78;5.30;;;;;;;;;;5069639;28;20215;-66
2023/04/22 00:25:12;;;;;;;6.90;5.22;;;;;;;;;;5070655;28;20214;-65
2023/04/22 00:27:38;;;;;;;7.72;5.20;;;;;;;;;;5070143;28;20211;-66
2023/04/22 00:30:03;;;;;;;7.15;5.20;;;;;;;;;;5070226;28;20206;-65
2023/04/22 00:32:29;;;;;;;6.43;4.93;;;;;;;;;;5070771;28;20276;-66
2023/04/22 00:34:56;;;;;;;9.55;5.50;;;;;;;;;;5070169;28;20297;-66
2023/04/22 00:37:21;;;;;;;7.95;5.25;;;;;;;;;;5070302;28;20237;-66
2023/04/22 00:39:46;;;;;;;6.80;4.90;;;;;;;;;;5070896;28;20226;-66
2023/04/22 00:42:12;;;;;;;6.22;4.60;;;;;;;;;;5069315;28;20218;-65
2023/04/22 00:44:37;;;;;;;9.32;5.53;;;;;;;;;;5069473;28;20206;-66
2023/04/22 00:47:03;;;;;;;8.73;5.70;;;;;;;;;;5068947;28;20264;-65
2023/04/22 00:49:28;;;;;;;8.07;5.70;;;;;;;;;;5068387;28;20657;-65
2023/04/22 00:51:53;;;;;;;7.18;6.00;;;;;;;;;;5070760;28;20238;-66
2023/04/22 00:54:19;;;;;;;7.97;5.22;;;;;;;;;;5069158;28;20211;-65
2023/04/22 00:56:44;;;;;;;6.90;5.25;;;;;;;;;;5069810;28;20233;-66
2023/04/22 00:59:09;;;;;;;8.48;6.25;;;;;;;;;;5068621;28;20203;-65
2023/04/22 01:01:35;;;;;;;7.30;5.30;;;;;;;;;;5070230;28;20229;-66
2023/04/22 01:04:00;;;;;;;6.13;5.45;;;;;;;;;;5069502;28;20263;-66
2023/04/22 01:06:25;;;;;;;7.25;5.70;;;;;;;;;;5065172;28;20222;-66
2023/04/22 01:08:50;;;;;;;9.15;5.22;;;;;;;;;;5076522;28;20214;-66
2023/04/22 01:11:16;;;;;;;7.63;5.50;;;;;;;;;;5059363;28;20210;-66
2023/04/22 01:13:41;;;;;;;7.03;5.18;;;;;;;;;;5077421;28;20278;-67
2023/04/22 01:16:07;;;;;;;6.00;5.28;;;;;;;;;;5071923;28;20213;-66
2023/04/22 01:18:33;;;;;;;8.45;5.47;;;;;;;;;;5059690;28;20207;-66
2023/04/22 01:20:58;;;;;;;8.50;5.95;;;;;;;;;;5070938;28;21143;-67
2023/04/22 01:23:23;;;;;;;9.23;6.32;;;;;;;;;;5060897;28;20202;-66
2023/04/22 01:25:48;;;;;;;9.45;6.60;;;;;;;;;;5053836;28;20313;-66
2023/04/22 01:28:14;;;;;;;7.75;6.10;;;;;;;;;;5059882;28;20207;-66
2023/04/22 01:30:39;;;;;;;9.38;6.00;;;;;;;;;;5059372;28;20220;-67
2023/04/22 01:33:05;;;;;;;9.70;6.82;;;;;;;;;;5060160;28;20217;-66
2023/04/22 01:35:35;;;;;;;8.57;6.82;;;;;;;;;;5059990;28;20297;-66
2023/04/22 01:38:01;;;;;;;9.38;6.10;;;;;;;;;;5078895;28;20209;-66
2023/04/22 01:40:26;;;;;;;10.73;6.72;;;;;;;;;;5069501;28;20225;-66
2023/04/22 01:42:52;;;;;;;10.77;7.47;;;;;;;;;;5054670;28;20279;-66
2023/04/22 01:45:17;;;;;;;11.38;7.13;;;;;;;;;;5051340;28;20689;-66
2023/04/22 01:47:43;;;;;;;13.40;9.40;;;;;;;;;;5052357;28;20269;-66
2023/04/22 01:50:08;;;;;;;11.52;8.40;;;;;;;;;;5077259;28;20201;-66
2023/04/22 01:52:35;;;;;;;11.57;7.80;;;;;;;;;;5079367;28;20679;-67
2023/04/22 01:55:00;;;;;;;11.40;8.27;;;;;;;;;;5078098;28;20198;-64
2023/04/22 01:57:26;;;;;;;13.63;8.75;;;;;;;;;;5078929;28;20208;-66
2023/04/22 01:59:51;;;;;;;11.10;9.05;;;;;;;;;;5078914;28;20224;-67
2023/04/22 02:02:16;;;;;;;14.82;9.20;;;;;;;;;;5079253;28;20267;-66
2023/04/22 02:04:42;;;;;;;16.08;10.00;;;;;;;;;;5076143;28;20217;-66
2023/04/22 02:07:07;;;;;;;11.27;9.05;;;;;;;;;;5055343;28;20293;-65
2023/04/22 02:09:32;;;;;;;14.23;9.30;;;;;;;;;;5056551;28;20245;-66
2023/04/22 02:11:57;;;;;;;12.88;8.90;;;;;;;;;;5060886;28;20217;-67
2023/04/22 02:14:23;;;;;;;11.65;8.60;;;;;;;;;;5071008;28;20347;-66
2023/04/22 02:16:48;;;;;;;12.25;9.40;;;;;;;;;;5070841;28;20565;-66
2023/04/22 02:19:13;;;;;;;13.05;10.60;;;;;;;;;;5063156;28;20218;-66
2023/04/22 02:21:39;;;;;;;13.80;9.93;;;;;;;;;;5062894;28;20283;-66
2023/04/22 02:24:04;;;;;;;11.57;9.65;;;;;;;;;;5080624;28;20206;-65
2023/04/22 02:26:29;;;;;;;12.52;10.63;;;;;;;;;;5081021;28;20438;-66
2023/04/22 02:28:55;;;;;;;13.35;11.30;;;;;;;;;;5076208;28;20245;-66
2023/04/22 02:31:20;;;;;;;14.70;9.88;;;;;;;;;;5075373;28;20462;-66
2023/04/22 02:33:45;;;;;;;12.57;9.88;;;;;;;;;;5077209;28;20276;-66
2023/04/22 02:36:11;;;;;;;16.60;12.35;;;;;;;;;;5082945;28;20312;-66
2023/04/22 02:38:36;;;;;;;15.13;11.15;;;;;;;;;;5082021;28;20464;-66
2023/04/22 02:41:02;;;;;;;15.88;12.07;;;;;;;;;;5081869;28;20226;-66
2023/04/22 02:43:27;;;;;;;16.00;12.10;;;;;;;;;;5083503;28;20712;-66
2023/04/22 02:45:52;;;;;;;14.02;11.70;;;;;;;;;;5082857;28;20202;-67
2023/04/22 02:48:17;;;;;;;13.05;11.57;;;;;;;;;;5082115;28;20571;-66
2023/04/22 02:50:43;;;;;;;14.48;11.35;;;;;;;;;;5076770;28;20304;-66
2023/04/22 02:53:08;;;;;;;15.68;11.27;;;;;;;;;;5073309;28;20218;-66
2023/04/22 02:55:33;;;;;;;12.85;10.52;;;;;;;;;;5074650;28;20214;-66
2023/04/22 02:57:59;;;;;;;17.25;12.82;;;;;;;;;;5081963;28;20213;-67
2023/04/22 03:00:24;;;;;;;16.75;12.70;;;;;;;;;;5063808;28;20214;-67
2023/04/22 03:02:49;;;;;;;20.38;12.32;;;;;;;;;;5062565;28;20233;-67
2023/04/22 03:05:15;;;;;;;14.77;10.73;;;;;;;;;;5062708;28;20615;-66
2023/04/22 03:07:40;;;;;;;17.15;13.57;;;;;;;;;;5062960;28;20210;-66
2023/04/22 03:10:06;;;;;;;13.70;11.40;;;;;;;;;;5061357;28;20237;-66
2023/04/22 03:12:31;;;;;;;15.38;13.07;;;;;;;;;;5058487;28;20305;-66
2023/04/22 03:14:56;;;;;;;17.90;13.48;;;;;;;;;;5068205;28;20651;-67
2023/04/22 03:17:22;;;;;;;15.10;13.30;;;;;;;;;;5067217;28;20325;-66
2023/04/22 03:19:47;;;;;;;18.08;14.48;;;;;;;;;;5074467;28;20225;-67
2023/04/22 03:22:12;;;;;;;17.55;14.95;;;;;;;;;;5061909;28;20222;-66
2023/04/22 03:24:37;;;;;;;20.88;15.15;;;;;;;;;;5077272;28;20220;-67
2023/04/22 03:27:03;;;;;;;20.42;15.52;;;;;;;;;;5062268;28;20540;-66
2023/04/22 03:29:28;;;;;;;17.27;14.70;;;;;;;;;;5062580;28;20314;-67
2023/04/22 03:31:53;;;;;;;18.17;14.93;;;;;;;;;;5061942;28;20207;-67
2023/04/22 03:34:19;;;;;;;19.13;14.82;;;;;;;;;;5079624;28;20228;-67
2023/04/22 03:36:44;;;;;;;19.85;15.80;;;;;;;;;;5074244;28;20214;-67
2023/04/22 03:39:10;;;;;;;18.42;14.98;;;;;;;;;;5073696;28;20670;-66
2023/04/22 03:41:35;;;;;;;16.50;14.65;;;;;;;;;;5075986;28;20213;-67
2023/04/22 03:44:00;;;;;;;16.45;14.25;;;;;;;;;;5081000;28;20967;-66
2023/04/22 03:46:26;;;;;;;21.08;17.00;;;;;;;;;;5081781;28;20214;-66
2023/04/22 03:48:51;;;;;;;17.73;14.73;;;;;;;;;;5081550;28;20210;-67
2023/04/22 03:51:16;;;;;;;19.52;16.38;;;;;;;;;;5079348;28;20210;-67
2023/04/22 03:53:41;;;;;;;17.80;15.60;;;;;;;;;;5081784;28;20706;-67
2023/04/22 03:56:07;;;;;;;18.25;16.27;;;;;;;;;;5081380;28;20309;-65
2023/04/22 03:58:32;;;;;;;19.35;14.98;;;;;;;;;;5074812;28;20214;-66
2023/04/22 04:00:57;;;;;;;25.15;17.75;;;;;;;;;;5074258;28;20205;-66
2023/04/22 04:03:23;;;;;;;18.17;15.25;;;;;;;;;;5071837;28;20619;-66
2023/04/22 04:05:48;;;;;;;18.33;15.52;;;;;;;;;;5071568;28;20260;-66
2023/04/22 04:08:13;;;;;;;22.13;17.88;;;;;;;;;;5060797;28;20550;-65
2023/04/22 04:10:38;;;;;;;22.95;17.77;;;;;;;;;;5061639;28;20253;-66
2023/04/22 04:13:04;;;;;;;21.00;17.10;;;;;;;;;;5075501;28;20241;-67
2023/04/22 04:15:29;;;;;;;19.23;15.90;;;;;;;;;;5076812;28;20220;-66
2023/04/22 04:17:55;;;;;;;18.60;16.45;;;;;;;;;;5061368;28;20215;-66
2023/04/22 04:20:20;;;;;;;20.10;17.02;;;;;;;;;;5056050;28;20238;-66
2023/04/22 04:22:46;;;;;;;17.55;15.68;;;;;;;;;;5068880;28;20325;-66
2023/04/22 04:25:11;;;;;;;24.75;18.25;;;;;;;;;;5053033;28;20242;-66
2023/04/22 04:27:38;;;;;;;20.27;16.55;;;;;;;;;;5057614;28;20218;-66
2023/04/22 04:30:03;;;;;;;18.88;15.13;;;;;;;;;;5080113;28;20681;-66
2023/04/22 04:32:32;;;;;;;20.30;17.48;;;;;;;;;;5081295;28;20254;-66
2023/04/22 04:34:58;;;;;;;22.65;17.27;;;;;;;;;;5080614;28;20197;-67
2023/04/22 04:37:24;;;;;;;21.58;18.55;;;;;;;;;;5079174;28;20285;-66
2023/04/22 04:39:49;;;;;;;20.30;16.67;;;;;;;;;;5080823;28;20214;-66
2023/04/22 04:42:14;;;;;;;25.75;20.33;;;;;;;;;;5077143;28;20586;-66
2023/04/22 04:44:40;;;;;;;25.20;20.30;;;;;;;;;;5053975;28;21020;-66
2023/04/22 04:47:05;;;;;;;25.67;19.33;;;;;;;;;;5051894;28;20893;-66
2023/04/22 04:49:31;;;;;;;23.52;19.20;;;;;;;;;;5075251;28;20628;-67
2023/04/22 04:51:56;;;;;;;21.52;18.45;;;;;;;;;;5080921;28;20214;-65
2023/04/22 04:54:22;;;;;;;24.15;18.58;;;;;;;;;;5078195;28;20898;-64
2023/04/22 04:56:47;;;;;;;20.15;17.67;;;;;;;;;;5079418;28;20621;-65
2023/04/22 04:59:12;;;;;;;20.83;17.80;;;;;;;;;;5080230;28;20217;-65
2023/04/22 05:01:37;;;;;;;21.13;17.63;;;;;;;;;;5080095;28;20228;-65
2023/04/22 05:04:03;;;;;;;19.80;17.42;;;;;;;;;;5080025;28;20545;-64
2023/04/22 05:06:28;;;;;;;23.98;18.55;;;;;;;;;;5059791;28;20209;-65
2023/04/22 05:08:53;;;;;;;21.63;18.25;;;;;;;;;;5052407;28;20748;-66
2023/04/22 05:11:19;;;;;;;22.88;18.83;;;;;;;;;;5052438;28;20214;-66
2023/04/22 05:13:44;;;;;;;22.05;18.60;;;;;;;;;;5065599;28;20556;-66
2023/04/22 05:16:10;;;;;;;21.95;18.05;;;;;;;;;;5072329;28;20624;-68
2023/04/22 05:18:35;;;;;;;22.85;18.40;;;;;;;;;;5068931;28;20311;-67
2023/04/22 05:21:03;;;;;;;20.88;18.65;;;;;;;;;;5069705;28;20233;-64
2023/04/22 05:23:29;;;;;;;22.02;18.33;;;;;;;;;;5072004;28;20705;-67
2023/04/22 05:25:54;;;;;;;19.25;16.90;;;;;;;;;;5081320;28;20210;-65
2023/04/22 05:28:19;;;;;;;23.00;18.73;;;;;;;;;;5080791;28;20830;-65
2023/04/22 05:30:45;;;;;;;29.53;26.33;;;;;;;;;;5085754;28;20425;-65
2023/04/22 05:33:10;;;;;;;22.65;19.35;;;;;;;;;;5089808;28;20642;-64
2023/04/22 05:35:35;;;;;;;27.73;24.83;;;;;;;;;;5089296;28;20427;-66
2023/04/22 05:38:01;;;;;;;23.67;20.27;;;;;;;;;;5086995;28;20321;-66
2023/04/22 05:40:27;;;;;;;24.35;21.00;;;;;;;;;;5090931;28;20205;-67
2023/04/22 05:42:52;;;;;;;25.23;21.08;;;;;;;;;;5094369;28;20218;-67
2023/04/22 05:45:17;;;;;;;26.63;21.58;;;;;;;;;;5093264;28;20737;-70
2023/04/22 05:47:43;;;;;;;24.23;20.77;;;;;;;;;;5094449;28;20408;-68
2023/04/22 05:50:08;;;;;;;25.95;20.58;;;;;;;;;;5093980;28;20292;-69
2023/04/22 05:52:33;;;;;;;20.85;18.55;;;;;;;;;;5093527;28;20505;-67
2023/04/22 05:54:58;;;;;;;23.02;20.30;;;;;;;;;;5094182;28;20255;-68
2023/04/22 05:57:24;;;;;;;27.75;23.27;;;;;;;;;;5093029;28;20288;-68
2023/04/22 05:59:49;;;;;;;23.52;20.73;;;;;;;;;;5090683;28;20205;-68
2023/04/22 06:02:15;;;;;;;29.92;24.42;;;;;;;;;;5083661;28;20470;-68
2023/04/22 06:04:40;;;;;;;28.08;23.23;;;;;;;;;;5085444;28;20531;-68
2023/04/22 06:07:06;;;;;;;27.05;21.73;;;;;;;;;;5084473;28;20258;-68
2023/04/22 06:09:31;;;;;;;26.70;21.40;;;;;;;;;;5081556;28;20226;-69
2023/04/22 06:11:57;;;;;;;26.92;22.55;;;;;;;;;;5085544;28;20214;-68
2023/04/22 06:14:22;;;;;;;30.45;24.05;;;;;;;;;;5073636;28;20221;-69
2023/04/22 06:16:49;;;;;;;30.27;23.48;;;;;;;;;;5082422;28;20210;-69
2023/04/22 06:19:14;;;;;;;25.75;21.13;;;;;;;;;;5081141;28;20256;-65
2023/04/22 06:21:41;;;;;;;30.77;27.00;;;;;;;;;;5091928;28;20853;-67
2023/04/22 06:24:07;;;;;;;31.27;25.73;;;;;;;;;;5089397;28;20206;-64
2023/04/22 06:26:33;;;;;;;32.35;24.65;;;;;;;;;;5083431;28;20215;-65
2023/04/22 06:28:58;;;;;;;25.83;22.17;;;;;;;;;;5087566;28;20202;-65
2023/04/22 06:31:23;;;;;;;27.42;23.35;;;;;;;;;;5084401;28;20287;-66
2023/04/22 06:33:49;;;;;;;25.70;22.88;;;;;;;;;;5086996;28;20252;-66
2023/04/22 06:36:14;;;;;;;24.45;20.90;;;;;;;;;;5074254;28;20582;-65
2023/04/22 06:38:39;;;;;;;25.25;21.17;;;;;;;;;;5072936;28;20210;-65
2023/04/22 06:41:05;;;;;;;24.83;19.25;;;;;;;;;;5071680;28;20230;-65
2023/04/22 06:43:30;;;;;;;24.45;20.83;;;;;;;;;;5072954;28;20267;-66
2023/04/22 06:45:55;;;;;;;22.65;19.70;;;;;;;;;;5071636;28;20210;-66
2023/04/22 06:48:21;;;;;;;26.60;21.65;;;;;;;;;;5071904;28;20226;-65
2023/04/22 06:50:46;;;;;;;23.02;19.42;;;;;;;;;;5072863;28;20221;-66
2023/04/22 06:53:11;;;;;;;23.92;18.73;;;;;;;;;;5072403;28;20233;-65
2023/04/22 06:55:37;;;;;;;20.90;18.33;;;;;;;;;;5072089;28;20206;-66
2023/04/22 06:58:02;;;;;;;20.63;16.85;;;;;;;;;;5072357;28;20228;-65
2023/04/22 07:00:28;;;;;;;20.48;15.65;;;;;;;;;;5072722;28;20209;-66
2023/04/22 07:02:53;;;;;;;17.35;14.60;;;;;;;;;;5071836;28;20218;-66
2023/04/22 07:05:18;;;;;;;19.00;14.95;;;;;;;;;;5076855;28;20250;-65
2023/04/22 07:07:44;;;;;;;18.15;15.20;;;;;;;;;;5090725;28;20614;-66
2023/04/22 07:10:11;;;;;;;14.75;13.15;;;;;;;;;;5078695;28;20579;-65
2023/04/22 07:12:36;;;;;;;16.00;13.98;;;;;;;;;;5071066;28;20206;-66
2023/04/22 07:15:02;;;;;;;13.95;12.50;;;;;;;;;;5071222;28;20222;-66
2023/04/22 07:17:27;;;;;;;15.27;13.07;;;;;;;;;;5091136;28;20212;-66
2023/04/22 07:19:53;;;;;;;17.67;13.23;;;;;;;;;;5092774;28;20216;-66
2023/04/22 07:22:18;;;;;;;15.68;12.52;;;;;;;;;;5091400;28;20566;-67
2023/04/22 07:24:43;;;;;;;14.50;11.95;;;;;;;;;;5086687;28;20263;-67
2023/04/22 07:27:09;;;;;;;13.65;11.88;;;;;;;;;;5071859;28;20195;-65
2023/04/22 07:29:34;;;;;;;15.20;12.38;;;;;;;;;;5071530;28;20210;-66
2023/04/22 07:31:59;;;;;;;14.68;11.55;;;;;;;;;;5072068;28;20678;-66
2023/04/22 07:34:25;;;;;;;13.43;11.23;;;;;;;;;;5071916;28;20211;-67
2023/04/22 07:36:52;;;;;;;13.65;11.38;;;;;;;;;;5071335;28;20732;-67
2023/04/22 07:39:17;;;;;;;15.38;11.02;;;;;;;;;;5074087;28;20234;-65
2023/04/22 07:41:42;;;;;;;14.70;11.60;;;;;;;;;;5076980;28;20234;-67
2023/04/22 07:44:09;;;;;;;12.77;11.15;;;;;;;;;;5070755;28;20206;-65
2023/04/22 07:46:34;;;;;;;13.55;12.15;;;;;;;;;;5069915;28;20418;-65
2023/04/22 07:49:00;;;;;;;12.88;10.93;;;;;;;;;;5071802;28;20202;-67
2023/04/22 07:51:25;;;;;;;12.65;9.45;;;;;;;;;;5069376;28;20768;-67
2023/04/22 07:53:50;;;;;;;12.43;10.30;;;;;;;;;;5071830;28;20210;-66
2023/04/22 07:56:15;;;;;;;10.75;9.57;;;;;;;;;;5071138;28;20267;-66
2023/04/22 07:58:41;;;;;;;10.55;8.90;;;;;;;;;;5072935;28;20294;-66
2023/04/22 08:01:06;;;;;;;14.55;9.40;;;;;;;;;;5082068;28;20228;-66
2023/04/22 08:03:31;;;;;;;10.93;8.68;;;;;;;;;;5080213;28;20202;-67
2023/04/22 08:05:57;;;;;;;10.73;8.30;;;;;;;;;;5080701;28;20673;-66
2023/04/22 08:08:22;;;;;;;10.02;7.68;;;;;;;;;;5090782;28;20305;-66
2023/04/22 08:10:48;;;;;;;9.43;8.10;;;;;;;;;;5072763;28;20218;-66
2023/04/22 08:13:13;;;;;;;8.63;7.57;;;;;;;;;;5070108;28;20632;-66
2023/04/22 08:15:38;;;;;;;9.73;7.25;;;;;;;;;;5074811;28;20201;-66
2023/04/22 08:18:04;;;;;;;8.60;7.05;;;;;;;;;;5090201;28;20611;-66
2023/04/22 08:20:29;;;;;;;8.10;6.80;;;;;;;;;;5091462;28;20229;-66
2023/04/22 08:22:59;;;;;;;7.50;6.13;;;;;;;;;;5090009;28;20570;-66
2023/04/22 08:25:24;;;;;;;10.20;6.38;;;;;;;;;;5078664;28;20210;-66
2023/04/22 08:27:50;;;;;;;8.35;6.63;;;;;;;;;;5053079;28;20209;-66
2023/04/22 08:30:15;;;;;;;9.25;6.63;;;;;;;;;;5069012;28;20245;-66
2023/04/22 08:32:40;;;;;;;9.63;6.85;;;;;;;;;;5070188;28;20234;-66
2023/04/22 08:35:06;;;;;;;8.45;6.88;;;;;;;;;;5070589;28;20198;-65
2023/04/22 08:37:31;;;;;;;11.07;7.47;;;;;;;;;;5070880;28;20272;-66
2023/04/22 08:39:57;;;;;;;8.25;6.30;;;;;;;;;;5068601;28;20198;-66
2023/04/22 08:42:22;;;;;;;9.38;8.20;;;;;;;;;;5068941;28;20229;-66
2023/04/22 08:44:47;;;;;;;8.05;6.75;;;;;;;;;;5069312;28;20230;-66
2023/04/22 08:47:13;;;;;;;9.95;7.40;;;;;;;;;;5069520;28;20265;-65
2023/04/22 08:49:38;;;;;;;8.38;6.80;;;;;;;;;;5070782;28;20239;-67
2023/04/22 08:52:04;;;;;;;9.23;7.78;;;;;;;;;;5075453;28;20664;-64
2023/04/22 08:54:29;;;;;;;10.55;7.60;;;;;;;;;;5082858;28;20214;-65
2023/04/22 08:56:54;;;;;;;10.45;7.50;;;;;;;;;;5084337;28;20202;-65
2023/04/22 08:59:20;;;;;;;8.40;7.35;;;;;;;;;;5070152;28;20240;-64
2023/04/22 09:01:46;;;;;;;9.38;7.47;;;;;;;;;;5068442;28;20229;-65
2023/04/22 09:04:13;;;;;;;9.45;7.53;;;;;;;;;;5069917;28;20272;-64
2023/04/22 09:06:38;;;;;;;10.38;7.90;;;;;;;;;;5086206;28;20232;-65
2023/04/22 09:09:03;;;;;;;9.40;7.43;;;;;;;;;;5083610;28;20603;-64
2023/04/22 09:11:29;;;;;;;8.90;7.55;;;;;;;;;;5069005;28;20214;-64
2023/04/22 09:13:54;;;;;;;9.93;7.38;;;;;;;;;;5087542;28;20633;-65
2023/04/22 09:16:20;;;;;;;8.88;6.95;;;;;;;;;;5078944;28;20210;-65
2023/04/22 09:18:45;;;;;;;9.90;7.30;;;;;;;;;;5070347;28;20206;-65
2023/04/22 09:21:10;;;;;;;9.77;6.88;;;;;;;;;;5069682;28;20264;-64
2023/04/22 09:23:43;;;;;;;9.00;7.22;;;;;;;;;;5069462;28;20233;-65
2023/04/22 09:26:09;;;;;;;7.80;6.97;;;;;;;;;;5051354;28;20583;-64
2023/04/22 09:28:35;;;;;;;10.43;7.40;;;;;;;;;;5068060;28;20700;-65
2023/04/22 09:31:00;;;;;;;7.97;7.13;;;;;;;;;;5069500;28;20215;-63
2023/04/22 09:33:26;;;;;;;7.28;6.25;;;;;;;;;;5068547;28;20245;-64
2023/04/22 09:35:51;;;;;;;9.98;7.22;;;;;;;;;;5069480;28;20207;-64
2023/04/22 09:38:17;;;;;;;8.18;7.30;;;;;;;;;;5069509;28;20246;-64
2023/04/22 09:40:42;;;;;;;8.02;6.32;;;;;;;;;;5070022;28;20209;-65
2023/04/22 09:43:08;;;;;;;8.70;5.47;;;;;;;;;;5068870;28;20213;-64
2023/04/22 09:45:34;;;;;;;7.07;6.13;;;;;;;;;;5069825;28;20768;-64
2023/04/22 09:48:03;;;;;;;9.52;6.53;;;;;;;;;;5068643;28;20214;-64
2023/04/22 09:50:28;;;;;;;7.30;6.10;;;;;;;;;;5068889;28;20206;-64
2023/04/22 09:52:55;;;;;;;7.95;5.38;;;;;;;;;;5069939;28;20548;-64
2023/04/22 09:55:21;;;;;;;7.78;5.85;;;;;;;;;;5069174;28;20684;-64
2023/04/22 09:57:46;;;;;;;6.72;5.45;;;;;;;;;;5067820;28;20691;-64
2023/04/22 10:00:12;;;;;;;8.65;6.00;;;;;;;;;;5069305;28;20301;-64
2023/04/22 10:02:38;;;;;;;7.10;5.45;;;;;;;;;;5070005;28;20225;-64
2023/04/22 10:05:03;;;;;;;7.55;6.50;;;;;;;;;;5071405;28;20210;-64
2023/04/22 10:07:30;;;;;;;7.60;6.03;;;;;;;;;;5088531;28;20669;-64
2023/04/22 10:09:56;;;;;;;8.60;6.40;;;;;;;;;;5077057;28;20218;-64
2023/04/22 10:12:21;;;;;;;7.07;5.68;;;;;;;;;;5067098;28;20585;-64
2023/04/22 10:14:46;;;;;;;7.70;5.68;;;;;;;;;;5069854;28;20690;-65
2023/04/22 10:17:11;;;;;;;8.75;5.63;;;;;;;;;;5062364;28;20305;-65
2023/04/22 10:19:37;;;;;;;7.07;6.10;;;;;;;;;;5067784;28;20540;-65
2023/04/22 10:22:02;;;;;;;8.02;5.95;;;;;;;;;;5067802;28;20222;-66
2023/04/22 10:24:28;;;;;;;8.55;6.25;;;;;;;;;;5069540;28;20281;-66
2023/04/22 10:27:04;;;;;;;9.00;6.10;;;;;;;;;;5072252;28;20774;-66
2023/04/22 10:29:37;;;;;;;8.35;5.50;;;;;;;;;;5093202;28;20209;-67
2023/04/22 10:32:04;;;;;;;9.95;6.60;;;;;;;;;;5091050;28;20213;-67
2023/04/22 10:34:36;;;;;;;7.90;6.30;;;;;;;;;;5092039;28;20198;-65
2023/04/22 10:37:08;;;;;;;8.60;5.63;;;;;;;;;;5093157;28;20237;-66
2023/04/22 10:39:33;;;;;;;8.75;6.18;;;;;;;;;;5092658;28;20205;-66
2023/04/22 10:42:08;;;;;;;9.10;6.05;;;;;;;;;;5093072;28;20221;-66
2023/04/22 10:44:50;;;;;;;9.02;5.97;;;;;;;;;;5091767;28;20205;-65
2023/04/22 10:47:36;;;;;;;7.03;5.85;;;;;;;;;;5090576;28;20256;-64
2023/04/22 10:50:26;;;;;;;8.30;6.30;;;;;;;;;;5092712;28;20213;-64
2023/04/22 10:52:53;;;;;;;7.88;6.60;;;;;;;;;;5092303;28;20221;-64
2023/04/22 10:55:18;;;;;;;7.93;6.07;;;;;;;;;;5092636;28;20206;-64
2023/04/22 10:57:44;;;;;;;8.88;6.18;;;;;;;;;;5092904;28;20336;-65
2023/04/22 11:00:26;;;;;;;8.55;6.90;;;;;;;;;;5090419;28;20218;-64
2023/04/22 11:03:03;;;;;;;9.55;6.70;;;;;;;;;;5092806;28;20218;-64
2023/04/22 11:05:29;;;;;;;8.98;6.72;;;;;;;;;;5086207;28;20206;-64
2023/04/22 11:07:54;;;;;;;8.82;7.03;;;;;;;;;;5071561;28;20214;-64
2023/04/22 11:10:30;;;;;;;9.38;6.95;;;;;;;;;;5086645;28;20220;-64
2023/04/22 11:12:55;;;;;;;8.45;6.72;;;;;;;;;;5092631;28;20673;-66
2023/04/22 11:15:21;;;;;;;7.57;6.40;;;;;;;;;;5089252;28;20225;-64
2023/04/22 11:17:49;;;;;;;9.68;6.68;;;;;;;;;;5072224;28;20295;-65
2023/04/22 11:20:20;;;;;;;8.15;6.75;;;;;;;;;;5071855;28;20214;-64
2023/04/22 11:22:46;;;;;;;8.77;6.15;;;;;;;;;;5071629;28;20227;-65
2023/04/22 11:25:12;;;;;;;9.35;7.03;;;;;;;;;;5070491;28;20210;-64
2023/04/22 11:27:37;;;;;;;8.07;7.28;;;;;;;;;;5072165;28;20202;-65
2023/04/22 11:30:03;;;;;;;11.07;7.10;;;;;;;;;;5071135;28;20695;-64
2023/04/22 11:32:28;;;;;;;9.27;6.50;;;;;;;;;;5071945;28;20259;-64
2023/04/22 11:34:54;;;;;;;8.60;6.25;;;;;;;;;;5071858;28;20195;-64
2023/04/22 11:37:19;;;;;;;8.63;6.00;;;;;;;;;;5070860;28;20305;-64
2023/04/22 11:39:44;;;;;;;7.60;5.57;;;;;;;;;;5070040;28;20210;-65
2023/04/22 11:42:11;;;;;;;8.30;5.50;;;;;;;;;;5070687;28;20222;-64
2023/04/22 11:44:37;;;;;;;7.50;5.70;;;;;;;;;;5071898;28;20218;-64
2023/04/22 11:47:02;;;;;;;7.65;6.05;;;;;;;;;;5071702;28;20198;-64
2023/04/22 11:49:31;;;;;;;9.20;6.10;;;;;;;;;;5070788;28;20207;-64
2023/04/22 11:51:56;;;;;;;10.68;6.40;;;;;;;;;;5071794;28;20526;-65
2023/04/22 11:54:29;;;;;;;8.60;6.15;;;;;;;;;;5071378;28;20235;-64
2023/04/22 11:56:55;;;;;;;8.02;6.35;;;;;;;;;;5069740;28;20214;-64
2023/04/22 11:59:22;;;;;;;6.82;5.25;;;;;;;;;;5069754;28;20214;-64
2023/04/22 12:01:48;;;;;;;9.25;6.20;;;;;;;;;;5071425;28;20614;-64
2023/04/22 12:04:13;;;;;;;7.82;6.78;;;;;;;;;;5072704;28;20214;-63
2023/04/22 12:06:40;;;;;;;8.32;6.78;;;;;;;;;;5076647;28;20218;-64
2023/04/22 12:09:06;;;;;;;9.38;6.55;;;;;;;;;;5070774;28;20221;-63
2023/04/22 12:11:31;;;;;;;8.45;5.85;;;;;;;;;;5083307;28;20223;-63
2023/04/22 12:13:57;;;;;;;10.38;6.40;;;;;;;;;;5091387;28;20201;-64
2023/04/22 12:16:22;;;;;;;8.93;6.20;;;;;;;;;;5079737;28;20214;-64
2023/04/22 12:18:48;;;;;;;10.70;5.85;;;;;;;;;;5068749;28;20214;-64
2023/04/22 12:21:14;;;;;;;9.50;6.18;;;;;;;;;;5069359;28;20264;-64
2023/04/22 12:23:42;;;;;;;9.45;6.40;;;;;;;;;;5052939;28;20210;-64
2023/04/22 12:26:07;;;;;;;8.57;5.68;;;;;;;;;;5069806;28;20218;-64
2023/04/22 12:28:33;;;;;;;7.40;5.60;;;;;;;;;;5070936;28;20198;-64
2023/04/22 12:30:58;;;;;;;7.63;5.15;;;;;;;;;;5072487;28;20662;-64
2023/04/22 12:33:23;;;;;;;11.45;5.70;;;;;;;;;;5072750;28;20217;-64
2023/04/22 12:35:51;;;;;;;7.38;5.50;;;;;;;;;;5064211;28;20264;-64
2023/04/22 12:38:16;;;;;;;8.65;5.68;;;;;;;;;;5076364;28;20222;-64
2023/04/22 12:40:42;;;;;;;7.85;5.32;;;;;;;;;;5080874;28;20205;-64
2023/04/22 12:43:07;;;;;;;5.93;5.03;;;;;;;;;;5063156;28;20264;-64
2023/04/22 12:45:32;;;;;;;7.05;4.80;;;;;;;;;;5064580;28;20298;-63
2023/04/22 12:47:58;;;;;;;7.88;5.60;;;;;;;;;;5065017;28;20258;-63
2023/04/22 12:50:23;;;;;;;8.15;5.25;;;;;;;;;;5074747;28;20217;-63
2023/04/22 12:52:48;;;;;;;6.75;5.38;;;;;;;;;;5084184;28;20228;-63
2023/04/22 12:55:14;;;;;;;8.57;5.10;;;;;;;;;;5081754;28;20218;-62
2023/04/22 12:57:39;;;;;;;7.72;5.28;;;;;;;;;;5076528;28;20213;-62
2023/04/22 13:00:05;;;;;;;8.32;5.28;;;;;;;;;;5075977;28;20563;-62
2023/04/22 13:02:31;;;;;;;8.25;5.20;;;;;;;;;;5079298;28;20416;-63
2023/04/22 13:04:56;;;;;;;9.23;5.38;;;;;;;;;;5082973;28;20758;-62
2023/04/22 13:07:22;;;;;;;7.68;5.10;;;;;;;;;;5073512;28;20206;-62
2023/04/22 13:09:47;;;;;;;9.25;5.68;;;;;;;;;;5074600;28;20222;-62
2023/04/22 13:12:12;;;;;;;7.47;5.50;;;;;;;;;;5064689;28;20214;-62
2023/04/22 13:14:38;;;;;;;8.10;5.38;;;;;;;;;;5064065;28;20569;-62
2023/04/22 13:17:03;;;;;;;10.70;5.28;;;;;;;;;;5064577;28;20216;-63
2023/04/22 13:19:29;;;;;;;7.57;5.20;;;;;;;;;;5057184;28;20260;-63
2023/04/22 13:21:54;;;;;;;8.10;5.70;;;;;;;;;;5056162;28;20222;-63
2023/04/22 13:24:20;;;;;;;9.85;5.60;;;;;;;;;;5057060;28;20210;-62
2023/04/22 13:26:45;;;;;;;10.02;6.30;;;;;;;;;;5063227;28;20249;-62
2023/04/22 13:29:12;;;;;;;10.18;7.00;;;;;;;;;;5063244;28;20233;-63
2023/04/22 13:31:38;;;;;;;10.25;7.40;;;;;;;;;;5083298;28;20563;-62
2023/04/22 13:34:03;;;;;;;11.68;8.00;;;;;;;;;;5083681;28;20206;-62
2023/04/22 13:36:30;;;;;;;11.20;8.23;;;;;;;;;;5083200;28;20296;-62
2023/04/22 13:38:56;;;;;;;9.20;7.82;;;;;;;;;;5064334;28;20724;-62
2023/04/22 13:41:21;;;;;;;10.68;7.55;;;;;;;;;;5066863;28;20229;-62
2023/04/22 13:43:51;;;;;;;10.77;8.45;;;;;;;;;;5075718;28;20214;-62
2023/04/22 13:46:17;;;;;;;11.25;7.88;;;;;;;;;;5076638;28;20213;-62
2023/04/22 13:48:42;;;;;;;12.80;8.32;;;;;;;;;;5078725;28;20209;-62
2023/04/22 13:51:07;;;;;;;10.43;8.68;;;;;;;;;;5079454;28;20376;-62
2023/04/22 13:53:32;;;;;;;10.50;9.40;;;;;;;;;;5063099;28;20202;-62
2023/04/22 13:55:58;;;;;;;12.95;9.13;;;;;;;;;;5063737;28;20255;-62
2023/04/22 13:58:23;;;;;;;11.10;8.25;;;;;;;;;;5064027;28;20210;-63
2023/04/22 14:00:48;;;;;;;11.30;9.18;;;;;;;;;;5062531;28;20210;-64
2023/04/22 14:03:14;;;;;;;12.23;9.40;;;;;;;;;;5065147;28;20864;-63
2023/04/22 14:05:39;;;;;;;10.85;8.65;;;;;;;;;;5060266;28;20203;-63
2023/04/22 14:08:04;;;;;;;9.75;8.18;;;;;;;;;;5066521;28;20410;-63
2023/04/22 14:10:30;;;;;;;11.25;10.05;;;;;;;;;;5063563;28;20408;-62
2023/04/22 14:12:55;;;;;;;12.30;10.05;;;;;;;;;;5069006;28;20206;-62
2023/04/22 14:15:20;;;;;;;13.45;10.50;;;;;;;;;;5067915;28;20317;-62
2023/04/22 14:17:48;;;;;;;12.43;10.93;;;;;;;;;;5066948;28;20214;-62
2023/04/22 14:20:13;;;;;;;13.68;11.70;;;;;;;;;;5065925;28;20214;-63
2023/04/22 14:22:38;;;;;;;15.32;11.85;;;;;;;;;;5067796;28;20230;-62